createdAt,value
2019-06-07T00:07:08.584Z,81.15
2019-06-07T00:17:14.097Z,81.13
2019-06-07T00:27:21.972Z,78.63
2019-06-07T00:37:25.627Z,78.24
2019-06-07T00:47:30.094Z,79.41
2019-06-07T00:57:34.655Z,80.30
2019-06-07T01:07:39.300Z,80.36
2019-06-07T01:18:25.897Z,81.22
2019-06-07T01:27:49.894Z,81.78
2019-06-07T01:37:54.594Z,83.07
2019-06-07T01:47:58.934Z,83.13
2019-06-07T01:58:03.595Z,83.21
2019-06-07T02:08:08.284Z,83.98
2019-06-07T02:18:12.607Z,84.38
2019-06-07T02:28:44.759Z,83.44
2019-06-07T02:38:27.685Z,83.71
2019-06-07T02:48:35.386Z,83.79
2019-06-07T02:58:41.535Z,83.89
2019-06-07T03:08:45.977Z,83.57
2019-06-07T03:18:54.814Z,83.85
2019-06-07T03:28:59.117Z,83.50
2019-06-07T03:39:04.725Z,82.63
2019-06-07T03:49:09.354Z,81.17
2019-06-07T03:59:13.947Z,81.40
2019-06-07T04:09:18.329Z,81.24
2019-06-07T04:19:22.856Z,81.42
2019-06-07T04:29:35.675Z,81.79
2019-06-07T04:39:37.820Z,81.95
2019-06-07T04:49:44.225Z,82.41
2019-06-07T05:00:11.894Z,82.53
2019-06-07T05:09:54.110Z,82.52
2019-06-07T05:19:59.354Z,81.16
2019-06-07T05:40:17.047Z,77.93
2019-06-07T05:50:39.099Z,77.23
2019-06-07T06:00:27.739Z,76.53
2019-06-07T06:10:34.064Z,76.50
2019-06-07T06:21:00.948Z,75.10
2019-06-07T06:30:47.921Z,74.33
2019-06-07T06:41:14.754Z,73.00
2019-06-07T06:51:03.822Z,71.51
2019-06-07T07:01:08.514Z,71.07
2019-06-07T07:11:13.056Z,71.09
2019-06-07T07:21:17.566Z,71.38
2019-06-07T07:31:21.935Z,69.89
2019-06-07T07:41:26.359Z,69.98
2019-06-07T07:51:30.906Z,70.21
2019-06-07T08:01:35.875Z,67.97
2019-06-07T08:11:40.692Z,67.05
2019-06-07T08:21:47.424Z,68.52
2019-06-07T08:31:54.417Z,65.92
2019-06-07T08:42:11.910Z,66.70
2019-06-07T08:52:10.657Z,66.19
2019-06-07T09:02:23.325Z,64.30
2019-06-07T09:12:16.790Z,63.58
2019-06-07T09:22:21.966Z,63.64
2019-06-07T09:32:26.710Z,62.46
2019-06-07T09:42:31.944Z,62.50
2019-06-07T09:52:57.391Z,61.55
2019-06-07T10:02:43.172Z,59.23
2019-06-07T10:12:48.006Z,59.46
2019-06-07T10:22:52.766Z,59.75
2019-06-07T10:32:58.235Z,59.87
2019-06-07T10:43:03.101Z,58.59
2019-06-07T10:53:08.363Z,58.69
2019-06-07T11:03:14.253Z,56.81
2019-06-07T11:13:18.765Z,55.42
2019-06-07T11:23:23.136Z,58.23
2019-06-07T11:33:27.534Z,55.99
2019-06-07T11:43:32.016Z,54.14
2019-06-07T11:53:36.949Z,55.62
2019-06-07T12:03:41.587Z,54.39
2019-06-07T12:13:45.977Z,52.61
2019-06-07T12:23:50.856Z,53.21
2019-06-07T12:33:55.975Z,53.13
2019-06-07T12:44:00.292Z,52.80
2019-06-07T12:54:05.296Z,48.89
2019-06-07T13:04:09.686Z,44.92
2019-06-07T13:14:15.908Z,34.15
2019-06-07T13:24:20.933Z,27.73
2019-06-07T13:34:25.844Z,73.95
2019-06-07T14:04:36.697Z,74.86
2019-06-07T17:14:44.557Z,43.06
2019-06-07T17:24:50.391Z,45.95
2019-06-07T17:34:56.169Z,48.65
2019-06-07T17:45:00.495Z,50.86
2019-06-07T17:55:08.945Z,52.30
2019-06-07T18:05:13.604Z,53.93
2019-06-07T18:15:23.835Z,55.93
2019-06-07T18:25:30.047Z,57.87
2019-06-07T18:35:35.143Z,58.15
2019-06-07T18:45:40.985Z,59.49
2019-06-07T18:55:45.987Z,61.08
2019-06-07T19:05:50.595Z,62.05
2019-06-07T19:15:55.457Z,63.39
2019-06-07T19:26:00.720Z,64.58
2019-06-07T19:36:05.716Z,65.18
2019-06-07T19:46:11.209Z,66.19
2019-06-07T19:56:15.719Z,67.17
2019-06-07T20:06:20.259Z,68.37
2019-06-07T20:16:24.995Z,69.27
2019-06-07T20:26:30.549Z,70.36
2019-06-07T20:36:35.206Z,70.97
2019-06-07T20:46:39.772Z,72.26
2019-06-07T20:56:44.635Z,73.00
2019-06-07T21:06:49.220Z,73.81
2019-06-07T21:16:53.907Z,74.61
2019-06-07T21:26:58.348Z,75.18
2019-06-07T21:37:03.813Z,75.79
2019-06-07T21:47:08.597Z,76.48
2019-06-07T21:57:13.414Z,77.00
2019-06-07T22:07:18.017Z,77.15
2019-06-07T22:17:22.911Z,77.58
2019-06-07T22:27:28.446Z,77.95
2019-06-07T22:37:34.798Z,78.58
2019-06-07T22:47:39.474Z,79.41
2019-06-07T22:57:57.424Z,79.71
2019-06-07T23:08:02.394Z,79.87
2019-06-07T23:18:06.965Z,80.69
2019-06-07T23:28:12.374Z,80.54
2019-06-07T23:38:17.046Z,80.58
2019-06-07T23:48:21.688Z,81.53
2019-06-07T23:58:26.547Z,82.58
